Time;durP1;ratioP1;P1;durP2;ratioP2;P2;SDS_P1;SDS_P2;PMS_P1;PMS_P2;Temp;Humidity;BMP_temperature;BMP_pressure;BME280_temperature;BME280_humidity;BME280_pressure;Samples;Min_cycle;Max_cycle;Signal;HPM_P1;HPM_P2
2023/06/16 00:00:12;;;;;;;4.47;4.10;;;26.30;36.20;;;;;;5020600;28;20440;-46
2023/06/16 00:02:41;;;;;;;6.93;4.40;;;26.20;36.40;;;;;;4998080;28;20670;-47
2023/06/16 00:05:12;;;;;;;6.77;4.27;;;26.20;36.50;;;;;;5020242;28;20444;-47
2023/06/16 00:07:38;;;;;;;5.17;4.77;;;26.20;36.40;;;;;;5015015;28;20583;-46
2023/06/16 00:10:06;;;;;;;5.33;4.83;;;26.20;36.50;;;;;;5025213;28;20543;-47
2023/06/16 00:12:32;;;;;;;4.83;4.33;;;26.20;36.60;;;;;;5023515;28;20190;-52
2023/06/16 00:14:57;;;;;;;5.30;4.80;;;26.20;36.60;;;;;;5020272;28;21289;-47
2023/06/16 00:17:23;;;;;;;6.03;4.90;;;26.10;36.60;;;;;;5020897;28;20255;-47
2023/06/16 00:19:50;;;;;;;5.47;4.97;;;26.10;36.70;;;;;;5034773;28;20318;-51
2023/06/16 00:22:15;;;;;;;4.77;4.37;;;26.10;36.70;;;;;;5024144;28;20515;-50
2023/06/16 00:24:41;;;;;;;4.97;4.57;;;26.00;36.90;;;;;;5022915;28;20526;-46
2023/06/16 00:27:07;;;;;;;5.43;5.03;;;26.00;36.90;;;;;;5020663;28;20300;-46
2023/06/16 00:29:32;;;;;;;4.90;4.50;;;26.00;37.60;;;;;;5023293;28;20632;-47
2023/06/16 00:31:58;;;;;;;8.57;5.00;;;26.00;37.00;;;;;;5030084;28;20199;-47
2023/06/16 00:34:23;;;;;;;5.03;4.40;;;26.00;37.00;;;;;;5029837;28;20698;-47
2023/06/16 00:36:50;;;;;;;4.27;3.97;;;26.00;37.10;;;;;;5028066;28;20220;-47
2023/06/16 00:39:15;;;;;;;4.90;4.60;;;26.00;37.20;;;;;;5020846;28;20250;-47
2023/06/16 00:41:41;;;;;;;4.73;4.43;;;25.90;37.10;;;;;;5027908;28;21027;-46
2023/06/16 00:44:06;;;;;;;6.43;5.10;;;25.90;37.30;;;;;;5034352;28;20652;-46
2023/06/16 00:46:35;;;;;;;4.87;4.53;;;25.90;37.20;;;;;;5034211;28;20232;-52
2023/06/16 00:49:01;;;;;;;5.40;4.90;;;25.90;37.30;;;;;;5026740;28;20200;-46
2023/06/16 00:51:27;;;;;;;4.90;4.50;;;25.90;37.30;;;;;;5024129;28;20926;-49
2023/06/16 00:53:54;;;;;;;4.47;4.10;;;25.90;37.20;;;;;;5021707;28;20461;-51
2023/06/16 00:56:21;;;;;;;5.60;5.10;;;25.90;37.20;;;;;;5023402;28;20907;-48
2023/06/16 00:58:51;;;;;;;4.40;4.10;;;25.90;37.20;;;;;;5031002;28;20436;-48
2023/06/16 01:01:17;;;;;;;4.83;4.43;;;25.90;37.30;;;;;;5028120;28;20440;-46
2023/06/16 01:03:44;;;;;;;5.70;4.43;;;25.90;37.40;;;;;;5034910;28;20962;-46
2023/06/16 01:06:25;;;;;;;5.10;4.70;;;25.80;37.40;;;;;;5022769;28;20240;-49
2023/06/16 01:08:59;;;;;;;4.87;3.90;;;25.80;37.60;;;;;;5029765;28;20470;-47
2023/06/16 01:11:43;;;;;;;5.70;5.30;;;25.70;37.70;;;;;;5027049;28;20646;-46
2023/06/16 01:14:28;;;;;;;5.07;4.67;;;25.70;37.70;;;;;;5020490;28;20456;-53
2023/06/16 01:16:57;;;;;;;4.93;4.53;;;25.70;37.70;;;;;;5024827;28;20466;-46
2023/06/16 01:19:49;;;;;;;5.00;4.60;;;25.60;37.70;;;;;;5034066;28;20980;-47
2023/06/16 01:22:45;;;;;;;6.60;5.87;;;25.60;37.80;;;;;;5024228;28;20509;-49
2023/06/16 01:25:14;;;;;;;5.63;5.17;;;25.60;37.80;;;;;;5027514;28;20452;-47
2023/06/16 01:27:47;;;;;;;4.97;4.57;;;25.60;38.00;;;;;;5015668;28;20496;-47
2023/06/16 01:30:15;;;;;;;5.57;5.10;;;25.50;38.00;;;;;;5014144;28;20454;-46
2023/06/16 01:32:45;;;;;;;5.43;5.00;;;25.50;38.00;;;;;;5011078;28;20452;-50
2023/06/16 01:35:11;;;;;;;5.50;5.00;;;25.40;38.10;;;;;;5027892;28;20451;-50
2023/06/16 01:37:38;;;;;;;5.80;5.40;;;25.50;38.70;;;;;;5030993;28;20452;-45
2023/06/16 01:40:06;;;;;;;4.73;4.43;;;25.50;38.20;;;;;;5029074;28;20448;-47
2023/06/16 01:42:32;;;;;;;5.80;5.40;;;25.40;38.20;;;;;;5019438;28;20451;-48
2023/06/16 01:44:59;;;;;;;7.50;5.37;;;25.40;38.20;;;;;;5021490;28;20471;-47
2023/06/16 01:47:24;;;;;;;5.10;4.73;;;25.50;38.20;;;;;;5017360;28;20683;-46
2023/06/16 01:49:50;;;;;;;4.80;4.50;;;25.50;38.30;;;;;;5016972;28;20551;-46
2023/06/16 01:52:16;;;;;;;6.13;5.53;;;25.40;38.30;;;;;;5021214;28;20189;-46
2023/06/16 01:54:41;;;;;;;5.53;5.13;;;25.50;38.30;;;;;;5012856;28;20198;-47
2023/06/16 01:57:07;;;;;;;6.17;5.70;;;25.50;38.20;;;;;;5016350;28;20185;-51
2023/06/16 01:59:33;;;;;;;5.10;4.70;;;25.50;38.20;;;;;;5014963;28;20716;-51
2023/06/16 02:02:09;;;;;;;5.47;5.03;;;25.50;38.30;;;;;;5020867;28;20323;-48
2023/06/16 02:04:36;;;;;;;6.20;4.83;;;25.50;38.40;;;;;;5018271;28;20531;-46
2023/06/16 02:07:13;;;;;;;5.77;5.20;;;25.40;38.40;;;;;;5016162;28;20549;-46
2023/06/16 02:09:42;;;;;;;5.20;4.80;;;25.40;38.40;;;;;;5015812;28;20459;-51
2023/06/16 02:12:11;;;;;;;5.67;5.17;;;25.40;38.30;;;;;;5016904;28;20582;-46
2023/06/16 02:14:38;;;;;;;5.17;4.77;;;25.40;38.40;;;;;;5018115;28;20452;-51
2023/06/16 02:17:05;;;;;;;4.60;4.30;;;25.30;38.60;;;;;;5012296;28;20492;-46
2023/06/16 02:19:32;;;;;;;6.00;5.50;;;25.30;38.70;;;;;;5017748;28;20463;-48
2023/06/16 02:21:58;;;;;;;5.70;5.30;;;25.30;38.70;;;;;;5015415;28;20822;-51
2023/06/16 02:24:24;;;;;;;6.20;5.17;;;25.20;38.70;;;;;;5021584;28;20522;-46
2023/06/16 02:26:49;;;;;;;5.10;4.70;;;25.20;38.80;;;;;;5015887;28;20487;-46
2023/06/16 02:29:16;;;;;;;6.17;5.67;;;25.20;38.80;;;;;;5026325;28;20193;-47
2023/06/16 02:31:49;;;;;;;7.33;5.67;;;25.30;38.80;;;;;;5026691;28;20185;-47
2023/06/16 02:34:15;;;;;;;6.07;5.67;;;25.20;38.40;;;;;;5021057;28;20532;-47
2023/06/16 02:36:41;;;;;;;7.30;6.60;;;25.00;38.70;;;;;;5022047;28;20448;-46
2023/06/16 02:39:07;;;;;;;6.30;5.70;;;24.60;39.30;;;;;;5019966;28;20453;-52
2023/06/16 02:41:34;;;;;;;6.23;5.73;;;24.30;39.80;;;;;;5014190;28;20472;-45
2023/06/16 02:44:00;;;;;;;6.77;6.27;;;23.90;40.40;;;;;;5018266;28;20204;-47
2023/06/16 02:46:25;;;;;;;6.40;5.90;;;23.60;40.90;;;;;;5027570;28;20475;-48
2023/06/16 02:48:51;;;;;;;7.10;6.20;;;23.40;41.40;;;;;;5015017;28;20220;-47
2023/06/16 02:51:16;;;;;;;6.53;5.93;;;23.10;41.80;;;;;;5012495;28;20206;-47
2023/06/16 02:53:45;;;;;;;6.00;5.50;;;23.00;42.40;;;;;;5028340;28;20535;-46
2023/06/16 02:56:11;;;;;;;6.17;5.63;;;22.80;42.90;;;;;;5025236;28;20193;-49
2023/06/16 02:58:37;;;;;;;7.60;5.90;;;22.70;43.20;;;;;;5020028;28;20539;-47
2023/06/16 03:01:04;;;;;;;6.33;5.73;;;22.50;43.50;;;;;;5026816;28;20442;-46
2023/06/16 03:03:31;;;;;;;6.97;6.27;;;22.30;44.20;;;;;;5026345;28;20853;-46
2023/06/16 03:05:58;;;;;;;7.27;6.57;;;21.60;45.50;;;;;;5023847;28;20816;-46
2023/06/16 03:08:24;;;;;;;7.30;6.07;;;21.30;46.30;;;;;;5021269;28;20510;-47
2023/06/16 03:10:51;;;;;;;7.00;6.40;;;21.20;46.50;;;;;;5017891;28;21010;-45
2023/06/16 03:13:17;;;;;;;7.53;6.83;;;21.20;46.70;;;;;;5022731;28;20452;-48
2023/06/16 03:15:43;;;;;;;7.53;6.00;;;21.10;46.90;;;;;;5023640;28;20440;-46
2023/06/16 03:18:09;;;;;;;7.40;5.77;;;20.90;47.40;;;;;;5021125;28;20440;-46
2023/06/16 03:20:35;;;;;;;7.63;6.63;;;20.70;47.80;;;;;;5021539;28;20490;-48
2023/06/16 03:23:01;;;;;;;9.60;6.80;;;20.60;47.80;;;;;;5018470;28;20440;-46
2023/06/16 03:25:28;;;;;;;7.27;6.67;;;20.70;47.60;;;;;;5016007;28;20803;-48
2023/06/16 03:27:53;;;;;;;6.00;5.50;;;20.80;47.60;;;;;;5026716;28;20300;-46
2023/06/16 03:30:19;;;;;;;7.93;6.60;;;20.80;47.50;;;;;;5027210;28;20818;-46
2023/06/16 03:32:45;;;;;;;8.20;6.67;;;20.70;47.90;;;;;;5024530;28;20220;-46
2023/06/16 03:35:12;;;;;;;7.23;6.50;;;20.50;48.40;;;;;;5020500;28;20255;-47
2023/06/16 03:37:38;;;;;;;8.20;7.00;;;20.30;48.90;;;;;;5022544;28;20444;-46
2023/06/16 03:40:07;;;;;;;7.07;6.37;;;19.70;50.20;;;;;;5024707;28;20443;-48
2023/06/16 03:42:33;;;;;;;7.33;6.63;;;19.60;50.70;;;;;;5025081;28;20454;-46
2023/06/16 03:44:59;;;;;;;8.13;7.23;;;19.70;50.40;;;;;;5023603;28;20444;-46
2023/06/16 03:47:26;;;;;;;7.60;6.90;;;19.80;50.20;;;;;;5027370;28;20282;-46
2023/06/16 03:49:52;;;;;;;7.23;6.53;;;19.90;49.90;;;;;;5021530;28;20848;-46
2023/06/16 03:52:18;;;;;;;7.13;6.63;;;20.00;49.90;;;;;;5022580;28;20447;-46
2023/06/16 03:54:43;;;;;;;6.90;6.30;;;20.00;49.90;;;;;;5024472;28;20798;-50
2023/06/16 03:57:09;;;;;;;6.57;6.00;;;19.80;49.90;;;;;;5017916;28;20194;-51
2023/06/16 03:59:36;;;;;;;7.23;6.63;;;19.70;50.50;;;;;;5015432;28;20200;-48
2023/06/16 04:02:07;;;;;;;7.00;6.30;;;19.80;50.10;;;;;;5020595;28;20521;-46
2023/06/16 04:04:36;;;;;;;8.90;6.87;;;20.00;49.70;;;;;;5013588;28;20878;-52
2023/06/16 04:07:09;;;;;;;7.27;6.67;;;20.20;49.40;;;;;;5016476;28;20912;-46
2023/06/16 04:09:34;;;;;;;7.10;6.33;;;20.30;49.20;;;;;;5014752;28;20530;-46
2023/06/16 04:12:00;;;;;;;7.70;6.97;;;20.40;49.10;;;;;;5011471;28;20449;-49
2023/06/16 04:14:25;;;;;;;7.10;6.33;;;20.40;49.50;;;;;;5019432;28;20267;-50
2023/06/16 04:16:51;;;;;;;7.50;6.80;;;20.50;49.00;;;;;;5028517;28;20565;-49
2023/06/16 04:19:19;;;;;;;6.83;6.23;;;20.50;48.80;;;;;;5029084;28;20193;-47
2023/06/16 04:21:45;;;;;;;7.33;6.70;;;20.40;49.10;;;;;;5014987;28;20248;-49
2023/06/16 04:24:11;;;;;;;6.63;6.10;;;20.00;49.90;;;;;;5023581;28;20435;-48
2023/06/16 04:26:37;;;;;;;6.40;5.90;;;20.00;50.00;;;;;;5016622;28;20746;-45
2023/06/16 04:29:04;;;;;;;7.10;6.50;;;19.90;50.40;;;;;;5018517;28;20193;-57
2023/06/16 04:31:32;;;;;;;6.60;6.00;;;19.80;50.60;;;;;;5019945;28;20445;-47
2023/06/16 04:33:58;;;;;;;6.50;5.90;;;19.50;51.10;;;;;;5026063;28;20447;-47
2023/06/16 04:36:29;;;;;;;7.63;6.33;;;19.60;51.20;;;;;;5019045;28;20444;-47
2023/06/16 04:38:59;;;;;;;8.73;7.23;;;19.70;50.90;;;;;;5019822;28;20448;-47
2023/06/16 04:41:27;;;;;;;8.27;7.40;;;19.80;50.70;;;;;;5021589;28;20435;-48
2023/06/16 04:43:54;;;;;;;7.80;7.00;;;20.00;50.50;;;;;;5018641;28;20436;-51
2023/06/16 04:46:20;;;;;;;8.27;7.47;;;20.10;50.10;;;;;;5022009;28;20475;-47
2023/06/16 04:48:46;;;;;;;6.97;6.37;;;20.10;50.20;;;;;;5026440;28;20448;-47
2023/06/16 04:51:12;;;;;;;7.90;7.07;;;19.90;50.60;;;;;;5027111;28;20204;-47
2023/06/16 04:53:37;;;;;;;7.63;7.00;;;19.70;51.30;;;;;;5022348;28;20201;-50
2023/06/16 04:56:03;;;;;;;7.93;7.33;;;19.80;51.50;;;;;;5019364;28;20198;-49
2023/06/16 04:58:29;;;;;;;8.30;7.60;;;19.70;51.50;;;;;;5023671;28;20247;-46
2023/06/16 05:00:55;;;;;;;7.57;6.77;;;19.50;51.90;;;;;;5025631;28;20272;-51
2023/06/16 05:03:20;;;;;;;11.20;9.03;;;19.30;52.80;;;;;;5023897;28;20614;-51
2023/06/16 05:05:46;;;;;;;8.03;7.33;;;19.40;52.50;;;;;;5023953;28;20235;-47
2023/06/16 05:08:12;;;;;;;8.40;7.60;;;19.60;52.40;;;;;;5022053;28;20753;-47
2023/06/16 05:10:38;;;;;;;7.67;6.97;;;19.80;51.90;;;;;;5029215;28;20255;-47
2023/06/16 05:13:04;;;;;;;7.80;7.20;;;19.90;51.60;;;;;;5030801;28;20592;-51
2023/06/16 05:15:29;;;;;;;10.60;5.90;;;20.00;51.40;;;;;;5025195;28;20554;-52
2023/06/16 05:17:55;;;;;;;14.23;6.00;;;19.90;51.70;;;;;;5029929;28;20200;-48
2023/06/16 05:20:21;;;;;;;6.57;6.00;;;20.20;51.30;;;;;;5025401;28;20644;-52
2023/06/16 05:22:46;;;;;;;6.67;5.40;;;20.60;50.40;;;;;;5018203;28;20201;-48
2023/06/16 05:25:12;;;;;;;6.90;6.30;;;20.90;49.50;;;;;;5016977;28;20200;-49
2023/06/16 05:27:37;;;;;;;6.03;5.43;;;20.90;49.10;;;;;;5013395;28;20684;-47
2023/06/16 05:30:03;;;;;;;7.10;6.40;;;21.00;48.60;;;;;;5021314;28;20190;-46
2023/06/16 05:32:29;;;;;;;6.90;6.30;;;21.20;48.30;;;;;;5019887;28;20900;-46
2023/06/16 05:34:56;;;;;;;6.37;5.77;;;21.10;48.40;;;;;;5026771;28;20197;-48
2023/06/16 05:37:22;;;;;;;6.73;6.13;;;21.00;48.80;;;;;;5023626;28;20218;-46
2023/06/16 05:39:49;;;;;;;6.70;5.33;;;20.70;49.70;;;;;;5012651;28;20436;-47
2023/06/16 05:42:15;;;;;;;7.90;7.07;;;20.70;49.60;;;;;;5024114;28;20444;-46
2023/06/16 05:44:45;;;;;;;7.93;6.00;;;20.90;49.30;;;;;;5029902;28;20806;-47
2023/06/16 05:47:11;;;;;;;7.10;6.40;;;21.20;48.60;;;;;;5030744;28;20537;-48
2023/06/16 05:49:37;;;;;;;7.37;6.50;;;21.70;47.80;;;;;;5020806;28;20487;-47
2023/06/16 05:52:05;;;;;;;6.87;6.17;;;22.10;47.10;;;;;;5028661;28;20953;-46
2023/06/16 05:54:31;;;;;;;7.00;6.40;;;22.10;46.40;;;;;;5026932;28;20208;-47
2023/06/16 05:56:57;;;;;;;6.53;5.93;;;22.30;46.10;;;;;;5031540;28;20456;-51
2023/06/16 05:59:22;;;;;;;7.27;6.53;;;22.50;45.80;;;;;;5030862;28;20494;-45
2023/06/16 06:01:51;;;;;;;7.40;6.80;;;22.40;46.10;;;;;;5021472;28;20189;-45
2023/06/16 06:04:23;;;;;;;7.10;6.20;;;22.60;46.00;;;;;;5027905;28;20212;-46
2023/06/16 06:06:49;;;;;;;6.80;6.10;;;22.90;45.40;;;;;;5029066;28;20487;-49
2023/06/16 06:09:15;;;;;;;7.23;6.63;;;23.10;44.80;;;;;;5019509;28;20511;-45
2023/06/16 06:11:40;;;;;;;6.97;6.37;;;23.30;44.60;;;;;;5011832;28;20200;-45
2023/06/16 06:14:06;;;;;;;6.60;5.50;;;23.50;44.30;;;;;;5017797;28;20259;-49
2023/06/16 06:16:31;;;;;;;7.90;6.73;;;23.60;44.00;;;;;;5029444;28;20569;-51
2023/06/16 06:18:57;;;;;;;6.67;6.13;;;23.60;44.30;;;;;;5029950;28;20652;-48
2023/06/16 06:21:24;;;;;;;6.60;6.00;;;23.70;43.90;;;;;;5030596;28;20221;-46
2023/06/16 06:23:49;;;;;;;6.60;6.10;;;23.90;43.60;;;;;;5026942;28;20199;-47
2023/06/16 06:26:15;;;;;;;6.90;6.20;;;24.10;43.50;;;;;;5024803;28;20467;-47
2023/06/16 06:28:40;;;;;;;6.27;5.77;;;24.20;44.50;;;;;;5025577;28;20653;-48
2023/06/16 06:31:06;;;;;;;6.73;6.10;;;24.30;43.50;;;;;;5014648;28;20206;-45
2023/06/16 06:33:32;;;;;;;5.90;5.40;;;24.20;43.50;;;;;;5016171;28;20190;-45
2023/06/16 06:35:57;;;;;;;6.40;5.80;;;24.30;43.70;;;;;;5022129;28;20279;-50
2023/06/16 06:38:23;;;;;;;5.47;4.97;;;24.50;43.60;;;;;;5022515;28;20197;-46
2023/06/16 06:40:48;;;;;;;6.20;5.63;;;24.70;43.00;;;;;;5018018;28;20324;-49
2023/06/16 06:43:14;;;;;;;6.83;6.23;;;24.80;42.30;;;;;;5024577;28;20194;-47
2023/06/16 06:45:40;;;;;;;6.20;5.60;;;25.00;42.10;;;;;;5029430;28;20204;-46
2023/06/16 06:48:05;;;;;;;6.80;6.00;;;25.10;42.20;;;;;;5023724;28;20268;-47
2023/06/16 06:50:31;;;;;;;10.90;6.17;;;25.20;41.90;;;;;;5015320;28;20217;-49
2023/06/16 06:52:56;;;;;;;6.80;6.20;;;25.40;41.90;;;;;;5029626;28;20204;-45
2023/06/16 06:55:22;;;;;;;8.03;6.13;;;25.50;41.10;;;;;;5030871;28;20205;-46
2023/06/16 06:57:49;;;;;;;7.00;5.60;;;25.50;41.00;;;;;;5024365;28;20284;-48
2023/06/16 07:00:15;;;;;;;6.83;5.70;;;25.50;40.40;;;;;;5026245;28;20726;-48
2023/06/16 07:02:41;;;;;;;7.00;6.00;;;25.60;40.50;;;;;;5026447;28;21119;-48
2023/06/16 07:05:08;;;;;;;7.10;6.13;;;25.70;40.30;;;;;;5025838;28;20488;-45
2023/06/16 07:07:34;;;;;;;6.40;5.80;;;25.80;40.40;;;;;;5022034;28;20492;-46
2023/06/16 07:09:59;;;;;;;9.73;5.53;;;25.90;40.80;;;;;;5024485;28;20886;-48
2023/06/16 07:12:25;;;;;;;5.90;5.40;;;26.10;40.20;;;;;;5018160;28;20200;-46
2023/06/16 07:14:51;;;;;;;8.60;6.30;;;26.20;39.60;;;;;;5026667;28;20193;-46
2023/06/16 07:17:16;;;;;;;6.83;6.23;;;26.30;38.90;;;;;;5027448;28;20239;-49
2023/06/16 07:19:42;;;;;;;6.67;5.97;;;26.20;39.10;;;;;;5027386;28;20243;-48
2023/06/16 07:22:08;;;;;;;7.13;5.90;;;26.30;39.00;;;;;;5024581;28;20189;-49
2023/06/16 07:24:33;;;;;;;7.77;7.00;;;26.40;38.70;;;;;;5023362;28;20189;-46
2023/06/16 07:27:01;;;;;;;10.03;6.40;;;26.40;38.80;;;;;;5026912;28;20684;-48
2023/06/16 07:29:27;;;;;;;6.13;5.57;;;26.50;38.60;;;;;;5021901;28;20198;-48
2023/06/16 07:31:52;;;;;;;7.40;5.57;;;26.50;38.50;;;;;;5030166;28;20845;-47
2023/06/16 07:34:18;;;;;;;6.10;5.50;;;26.60;38.60;;;;;;5028697;28;20199;-48
2023/06/16 07:36:44;;;;;;;6.83;5.70;;;26.70;39.40;;;;;;5028468;28;20197;-46
2023/06/16 07:39:10;;;;;;;6.80;6.00;;;26.80;39.30;;;;;;5027380;28;20204;-50
2023/06/16 07:41:36;;;;;;;6.43;5.93;;;26.90;38.90;;;;;;5029928;28;21143;-48
2023/06/16 07:44:02;;;;;;;6.07;5.67;;;27.00;38.30;;;;;;5029336;28;20567;-46
2023/06/16 07:46:28;;;;;;;6.10;5.53;;;27.10;37.60;;;;;;5026073;28;20200;-50
2023/06/16 07:48:54;;;;;;;5.70;5.20;;;27.30;37.70;;;;;;5028082;28;20436;-46
2023/06/16 07:51:22;;;;;;;5.77;5.37;;;27.30;38.30;;;;;;5023810;28;20197;-46
2023/06/16 07:53:48;;;;;;;5.80;5.30;;;27.50;36.90;;;;;;5010362;28;20193;-48
2023/06/16 07:56:15;;;;;;;6.93;5.50;;;27.70;36.60;;;;;;5018100;28;20444;-48
2023/06/16 07:58:40;;;;;;;6.70;5.60;;;27.80;36.80;;;;;;5010268;28;20562;-48
2023/06/16 08:01:06;;;;;;;7.03;5.60;;;27.80;36.90;;;;;;5011007;28;20437;-46
2023/06/16 08:03:32;;;;;;;6.27;5.67;;;28.00;36.10;;;;;;5010153;28;20201;-46
2023/06/16 08:05:57;;;;;;;7.50;5.50;;;28.10;34.50;;;;;;5010321;28;20432;-50
2023/06/16 08:08:26;;;;;;;5.60;5.10;;;28.20;34.60;;;;;;5018803;28;20240;-50
2023/06/16 08:10:51;;;;;;;5.63;4.73;;;28.30;34.20;;;;;;5030248;28;20200;-52
2023/06/16 08:13:17;;;;;;;6.13;5.17;;;28.40;33.90;;;;;;5028040;28;20463;-51
2023/06/16 08:15:43;;;;;;;6.30;5.50;;;28.50;33.30;;;;;;5026826;28;20193;-50
2023/06/16 08:18:08;;;;;;;5.53;5.03;;;28.60;32.70;;;;;;5020151;28;20193;-50
2023/06/16 08:20:35;;;;;;;5.40;4.53;;;28.80;32.60;;;;;;5026016;28;20649;-46
2023/06/16 08:23:00;;;;;;;6.53;4.97;;;28.80;32.30;;;;;;5022125;28;20217;-53
2023/06/16 08:25:26;;;;;;;6.67;5.87;;;28.90;31.90;;;;;;5027508;28;20443;-49
2023/06/16 08:27:51;;;;;;;5.67;4.97;;;29.00;32.10;;;;;;5025609;28;20236;-50
2023/06/16 08:30:18;;;;;;;9.30;5.13;;;29.10;31.70;;;;;;5010740;28;20196;-47
2023/06/16 08:32:43;;;;;;;6.73;5.63;;;29.10;31.10;;;;;;5023548;28;20193;-52
2023/06/16 08:35:10;;;;;;;6.80;4.70;;;29.10;30.60;;;;;;5028916;28;20533;-48
2023/06/16 08:37:36;;;;;;;8.97;5.00;;;29.10;30.60;;;;;;5027931;28;20280;-46
2023/06/16 08:40:07;;;;;;;5.20;4.70;;;29.20;31.00;;;;;;5027334;28;21008;-47
2023/06/16 08:42:36;;;;;;;6.27;4.90;;;29.30;30.60;;;;;;5029267;28;20645;-49
2023/06/16 08:45:03;;;;;;;6.27;5.03;;;29.50;30.40;;;;;;5033068;28;20438;-50
2023/06/16 08:47:29;;;;;;;6.00;4.60;;;29.60;29.80;;;;;;5029872;28;20486;-51
2023/06/16 08:49:56;;;;;;;6.70;4.93;;;29.70;29.60;;;;;;5031421;28;20439;-51
2023/06/16 08:52:23;;;;;;;7.40;4.57;;;29.60;29.10;;;;;;5024544;28;20233;-47
2023/06/16 08:54:56;;;;;;;7.90;5.43;;;29.60;29.10;;;;;;5026225;28;20763;-51
2023/06/16 08:57:23;;;;;;;5.93;4.20;;;29.80;29.60;;;;;;5023052;28;20566;-53
2023/06/16 08:59:53;;;;;;;4.00;3.70;;;29.90;28.20;;;;;;5032065;28;21271;-49
2023/06/16 09:02:20;;;;;;;7.13;4.40;;;30.10;28.00;;;;;;5030268;28;21313;-50
2023/06/16 09:04:46;;;;;;;4.83;4.43;;;30.30;25.90;;;;;;5029531;28;20454;-49
2023/06/16 09:07:16;;;;;;;4.63;4.13;;;30.40;25.10;;;;;;5030917;28;20585;-48
2023/06/16 09:09:42;;;;;;;4.90;4.30;;;30.50;26.20;;;;;;5028603;28;20935;-51
2023/06/16 09:12:10;;;;;;;6.50;4.03;;;30.70;26.30;;;;;;5025972;28;20613;-52
2023/06/16 09:14:41;;;;;;;4.47;4.07;;;30.80;26.60;;;;;;5026435;28;20475;-51
2023/06/16 09:17:09;;;;;;;4.37;3.97;;;31.00;26.90;;;;;;5022803;28;20946;-50
2023/06/16 09:19:47;;;;;;;7.00;4.53;;;31.10;25.40;;;;;;5030406;28;20497;-50
2023/06/16 09:22:16;;;;;;;4.30;3.80;;;31.20;24.90;;;;;;5031577;28;20470;-51
2023/06/16 09:24:42;;;;;;;5.90;4.20;;;31.40;24.90;;;;;;5016926;28;20443;-53
2023/06/16 09:27:08;;;;;;;4.00;3.70;;;31.50;25.70;;;;;;5030497;28;20487;-48
2023/06/16 09:29:34;;;;;;;4.77;4.40;;;31.70;25.20;;;;;;5030306;28;20773;-48
2023/06/16 09:32:07;;;;;;;4.60;3.90;;;31.80;25.40;;;;;;5023300;28;21143;-51
2023/06/16 09:34:33;;;;;;;5.73;4.07;;;32.00;24.70;;;;;;5021876;28;20798;-50
2023/06/16 09:36:59;;;;;;;6.23;3.70;;;32.10;24.20;;;;;;5020903;28;20534;-51
2023/06/16 09:39:25;;;;;;;4.27;3.37;;;32.20;23.50;;;;;;5026013;28;20668;-49
2023/06/16 09:41:52;;;;;;;6.60;3.90;;;32.20;23.40;;;;;;5031692;28;20193;-51
2023/06/16 09:44:21;;;;;;;9.00;3.90;;;32.10;24.00;;;;;;5030339;28;20869;-50
2023/06/16 09:46:50;;;;;;;5.33;4.70;;;32.20;24.60;;;;;;5028081;28;20502;-53
2023/06/16 09:49:25;;;;;;;3.80;3.50;;;32.40;24.10;;;;;;5019559;28;20445;-51
2023/06/16 09:51:56;;;;;;;5.83;4.00;;;32.50;24.20;;;;;;5018292;28;20497;-52
2023/06/16 09:54:23;;;;;;;4.33;3.90;;;32.60;24.10;;;;;;5022414;28;20873;-51
2023/06/16 09:56:50;;;;;;;8.13;4.80;;;32.70;23.80;;;;;;5020176;28;20468;-51
2023/06/16 09:59:16;;;;;;;4.53;4.13;;;32.90;24.10;;;;;;5023990;28;20459;-53
2023/06/16 10:01:43;;;;;;;4.70;4.23;;;33.10;23.90;;;;;;5025141;28;20444;-50
2023/06/16 10:04:10;;;;;;;9.00;4.90;;;33.20;23.10;;;;;;5024618;28;20666;-52
2023/06/16 10:06:43;;;;;;;4.70;4.30;;;33.20;23.90;;;;;;5025296;28;20575;-51
2023/06/16 10:09:10;;;;;;;4.60;4.27;;;33.20;23.50;;;;;;5029504;28;20463;-52
2023/06/16 10:11:36;;;;;;;4.60;3.83;;;33.30;23.60;;;;;;5023131;28;20447;-52
2023/06/16 10:14:07;;;;;;;7.23;4.50;;;33.40;23.80;;;;;;5028320;28;20506;-49
2023/06/16 10:16:35;;;;;;;5.90;4.27;;;33.40;23.60;;;;;;5025575;28;20449;-53
2023/06/16 10:19:02;;;;;;;6.70;4.53;;;33.50;23.30;;;;;;5013402;28;20444;-52
2023/06/16 10:21:29;;;;;;;5.40;4.40;;;33.70;23.40;;;;;;5020907;28;20451;-51
2023/06/16 10:23:55;;;;;;;5.77;5.30;;;33.90;22.80;;;;;;5031371;28;20559;-53
2023/06/16 10:26:20;;;;;;;6.70;4.70;;;34.00;22.50;;;;;;5021555;28;20506;-50
2023/06/16 10:28:47;;;;;;;4.73;4.30;;;34.10;23.10;;;;;;5022422;28;20317;-52
2023/06/16 10:31:14;;;;;;;5.47;4.23;;;34.10;22.60;;;;;;5018550;28;20197;-53
2023/06/16 10:33:59;;;;;;;4.90;4.40;;;34.30;22.40;;;;;;5028033;28;21092;-52
2023/06/16 10:36:29;;;;;;;4.47;4.17;;;34.50;22.20;;;;;;5019345;28;20460;-47
2023/06/16 10:38:59;;;;;;;5.43;4.53;;;34.60;22.10;;;;;;5029197;28;20506;-52
2023/06/16 10:41:29;;;;;;;5.33;4.87;;;34.70;21.80;;;;;;5028000;28;21121;-49
2023/06/16 10:43:55;;;;;;;4.73;4.20;;;34.80;23.00;;;;;;5030264;28;20444;-50
2023/06/16 10:46:21;;;;;;;6.03;4.80;;;34.80;22.50;;;;;;5025324;28;20440;-51
2023/06/16 10:49:07;;;;;;;6.03;4.77;;;34.80;21.70;;;;;;5030253;28;20470;-54
2023/06/16 10:51:42;;;;;;;6.00;4.00;;;34.90;22.10;;;;;;5022998;28;20555;-53
2023/06/16 10:54:09;;;;;;;5.13;4.20;;;35.10;22.50;;;;;;5021528;28;20451;-50
2023/06/16 10:57:01;;;;;;;5.77;5.27;;;35.30;22.60;;;;;;5026304;28;20463;-51
2023/06/16 10:59:27;;;;;;;5.30;4.80;;;35.10;22.10;;;;;;5021196;28;20551;-52
2023/06/16 11:01:57;;;;;;;4.60;4.20;;;35.00;21.80;;;;;;5023356;28;20919;-52
2023/06/16 11:04:22;;;;;;;4.50;4.10;;;34.90;21.60;;;;;;5015022;28;20190;-49
2023/06/16 11:07:03;;;;;;;5.50;4.50;;;34.80;21.40;;;;;;5023886;28;20506;-48
2023/06/16 11:09:30;;;;;;;5.03;4.33;;;34.70;21.40;;;;;;5024945;28;20571;-50
2023/06/16 11:12:02;;;;;;;4.40;4.10;;;34.60;21.90;;;;;;5024899;28;21020;-48
2023/06/16 11:14:28;;;;;;;5.97;4.70;;;34.60;21.80;;;;;;5023882;28;20437;-49
2023/06/16 11:16:55;;;;;;;6.67;4.57;;;34.60;21.90;;;;;;5019207;28;20463;-53
2023/06/16 11:19:21;;;;;;;5.27;4.53;;;34.50;21.80;;;;;;5016520;28;20194;-52
2023/06/16 11:21:47;;;;;;;4.07;3.57;;;34.60;21.30;;;;;;5025191;28;20798;-48
2023/06/16 11:24:13;;;;;;;5.47;4.63;;;34.50;21.30;;;;;;5022259;28;20710;-47
2023/06/16 11:26:39;;;;;;;4.67;4.37;;;34.50;21.30;;;;;;5028351;28;20271;-51
2023/06/16 11:29:06;;;;;;;4.80;4.40;;;34.40;21.10;;;;;;5021447;28;20866;-49
2023/06/16 11:31:35;;;;;;;4.47;4.10;;;34.50;21.20;;;;;;5024349;28;21034;-51
2023/06/16 11:34:02;;;;;;;5.43;4.67;;;34.50;20.60;;;;;;5020832;28;20441;-49
2023/06/16 11:36:28;;;;;;;4.23;3.83;;;34.50;20.90;;;;;;5029648;28;20443;-51
2023/06/16 11:38:55;;;;;;;7.27;5.57;;;34.40;21.40;;;;;;5019757;28;20960;-49
2023/06/16 11:41:35;;;;;;;8.83;4.07;;;34.40;21.40;;;;;;5026876;28;20205;-50
2023/06/16 11:44:00;;;;;;;4.77;4.37;;;34.40;21.10;;;;;;5023657;28;20448;-51
2023/06/16 11:46:28;;;;;;;4.70;4.30;;;34.20;20.90;;;;;;5024252;28;20439;-51
2023/06/16 11:48:54;;;;;;;4.60;4.23;;;34.30;21.00;;;;;;5020274;28;20229;-48
2023/06/16 11:51:22;;;;;;;5.80;4.87;;;34.30;20.80;;;;;;5027864;28;20435;-48
2023/06/16 11:53:47;;;;;;;5.33;4.10;;;34.50;20.80;;;;;;5026494;28;20428;-50
2023/06/16 11:56:15;;;;;;;6.20;4.40;;;34.50;20.60;;;;;;5025051;28;20490;-51
2023/06/16 11:58:45;;;;;;;6.00;4.67;;;34.50;20.60;;;;;;5021810;28;20228;-49
2023/06/16 12:01:14;;;;;;;5.60;5.10;;;34.60;20.50;;;;;;5030195;28;20855;-51
2023/06/16 12:03:41;;;;;;;6.07;4.40;;;34.60;20.60;;;;;;5029549;28;20851;-49
2023/06/16 12:06:07;;;;;;;5.10;4.33;;;34.60;20.70;;;;;;5021268;28;20459;-50
2023/06/16 12:08:45;;;;;;;5.40;4.30;;;34.30;20.60;;;;;;5026538;28;20851;-50
2023/06/16 12:11:13;;;;;;;5.30;4.67;;;34.00;21.30;;;;;;5021410;28;20456;-50
2023/06/16 12:13:40;;;;;;;5.80;4.80;;;34.10;22.80;;;;;;5018061;28;20444;-48
2023/06/16 12:16:08;;;;;;;5.47;4.60;;;34.30;21.90;;;;;;5020612;28;21004;-50
2023/06/16 12:18:34;;;;;;;6.83;5.07;;;34.70;21.70;;;;;;5026173;28;20482;-47
2023/06/16 12:21:20;;;;;;;5.27;4.77;;;34.80;20.80;;;;;;5028842;28;20455;-50
2023/06/16 12:23:53;;;;;;;10.00;4.87;;;35.00;21.00;;;;;;5018584;28;20547;-51
2023/06/16 12:26:26;;;;;;;6.67;5.37;;;35.30;20.80;;;;;;5017663;28;20453;-50
2023/06/16 12:28:53;;;;;;;4.97;4.47;;;35.40;20.30;;;;;;5009591;28;20532;-51
2023/06/16 12:31:20;;;;;;;4.80;4.50;;;35.40;20.20;;;;;;5017570;28;20431;-47
2023/06/16 12:33:50;;;;;;;5.80;5.20;;;35.30;20.40;;;;;;5012732;28;20458;-50
2023/06/16 12:36:16;;;;;;;5.50;5.00;;;35.30;20.30;;;;;;5025717;28;20475;-51
2023/06/16 12:38:42;;;;;;;5.30;4.80;;;35.40;20.20;;;;;;5027848;28;20529;-49
2023/06/16 12:41:15;;;;;;;5.97;5.40;;;35.30;20.10;;;;;;5027004;28;20440;-49
2023/06/16 12:43:51;;;;;;;6.03;4.63;;;35.40;20.10;;;;;;5023214;28;20239;-50
2023/06/16 12:46:18;;;;;;;5.30;4.90;;;35.40;19.90;;;;;;5024238;28;22232;-50